Time;durP1;ratioP1;P1;durP2;ratioP2;P2;SDS_P1;SDS_P2;PMS_P1;PMS_P2;Temp;Humidity;BMP_temperature;BMP_pressure;BME280_temperature;BME280_humidity;BME280_pressure;Samples;Min_cycle;Max_cycle;Signal;HPM_P1;HPM_P2
2021/12/26 00:01:52;;;;;;;6.07;3.47;;;1.30;99.90;;;;;;4189308;28;20330;-54
2021/12/26 00:03:53;;;;;;;4.70;3.27;;;1.30;99.90;;;;;;4190377;28;21100;-54
2021/12/26 00:05:57;;;;;;;5.57;3.60;;;1.30;99.90;;;;;;4189486;28;20680;-61
2021/12/26 00:07:58;;;;;;;5.47;3.43;;;1.30;99.90;;;;;;4190333;28;20303;-50
2021/12/26 00:10:00;;;;;;;6.30;3.60;;;1.30;99.90;;;;;;4188911;28;20652;-53
2021/12/26 00:12:01;;;;;;;6.43;3.87;;;1.30;99.90;;;;;;4190513;28;20304;-57
2021/12/26 00:14:05;;;;;;;6.07;3.73;;;1.20;99.90;;;;;;4189377;28;20664;-54
2021/12/26 00:16:07;;;;;;;5.83;4.00;;;1.20;99.90;;;;;;4190237;28;20283;-56
2021/12/26 00:18:11;;;;;;;5.87;3.70;;;1.20;99.90;;;;;;4188789;28;20282;-55
2021/12/26 00:20:13;;;;;;;7.80;4.17;;;1.20;99.90;;;;;;4192797;28;20265;-57
2021/12/26 00:22:15;;;;;;;6.93;3.77;;;1.20;99.90;;;;;;4191487;28;20273;-55
2021/12/26 00:24:16;;;;;;;5.10;3.30;;;1.20;99.90;;;;;;4193113;28;20265;-54
2021/12/26 00:26:17;;;;;;;7.10;3.87;;;1.20;99.90;;;;;;4192360;28;20310;-58
2021/12/26 00:28:18;;;;;;;7.00;4.43;;;1.20;99.90;;;;;;4192032;28;20269;-53
2021/12/26 00:30:20;;;;;;;6.37;4.17;;;1.20;99.90;;;;;;4192742;28;20602;-53
2021/12/26 00:32:21;;;;;;;6.77;3.90;;;1.20;99.90;;;;;;4191999;28;20278;-57
2021/12/26 00:34:22;;;;;;;6.00;4.30;;;1.20;99.90;;;;;;4192199;28;20359;-57
2021/12/26 00:36:24;;;;;;;5.37;4.30;;;1.20;99.90;;;;;;4191386;28;20319;-57
2021/12/26 00:38:26;;;;;;;6.47;3.80;;;1.20;99.90;;;;;;4193514;28;20323;-56
2021/12/26 00:40:27;;;;;;;6.13;4.03;;;1.20;99.90;;;;;;4191432;28;20306;-57
2021/12/26 00:42:29;;;;;;;6.87;4.07;;;1.20;99.90;;;;;;4193154;28;20293;-57
2021/12/26 00:44:30;;;;;;;6.00;3.77;;;1.20;99.90;;;;;;4191355;28;20293;-53
2021/12/26 00:46:31;;;;;;;6.03;4.00;;;1.20;99.90;;;;;;4192699;28;20973;-53
2021/12/26 00:48:32;;;;;;;8.73;4.53;;;1.20;99.90;;;;;;4191511;28;20310;-57
2021/12/26 00:50:36;;;;;;;9.23;4.90;;;1.20;99.90;;;;;;4192762;28;20273;-55
2021/12/26 00:52:37;;;;;;;12.60;6.73;;;1.20;99.90;;;;;;4191595;28;20889;-55
2021/12/26 00:54:38;;;;;;;9.33;5.53;;;1.20;99.90;;;;;;4192842;28;20335;-52
2021/12/26 00:56:40;;;;;;;10.63;6.33;;;1.20;99.90;;;;;;4191770;28;20323;-52
2021/12/26 00:58:41;;;;;;;12.90;7.23;;;1.20;99.90;;;;;;4190761;28;20273;-54
2021/12/26 01:00:45;;;;;;;12.47;7.00;;;1.30;99.90;;;;;;4191676;28;20757;-56
2021/12/26 01:02:47;;;;;;;13.30;6.70;;;1.30;99.90;;;;;;4191792;28;20273;-54
2021/12/26 01:04:48;;;;;;;28.50;15.17;;;1.30;99.90;;;;;;4192471;28;20265;-59
2021/12/26 01:06:50;;;;;;;8.83;5.30;;;1.30;99.90;;;;;;4189800;28;20334;-57
2021/12/26 01:08:52;;;;;;;5.20;3.63;;;1.30;99.90;;;;;;4192328;28;20676;-56
2021/12/26 01:11:01;;;;;;;7.23;5.23;;;1.30;99.90;;;;;;4191275;28;20265;-51
2021/12/26 01:15:38;;;;;;;7.27;4.60;;;1.30;99.90;;;;;;4178593;28;20305;-54
2021/12/26 01:17:44;;;;;;;5.33;3.73;;;1.30;99.90;;;;;;4192371;28;20668;-55
2021/12/26 01:19:49;;;;;;;5.90;3.87;;;1.30;99.90;;;;;;4190113;28;20738;-55
2021/12/26 01:21:50;;;;;;;6.80;3.67;;;1.30;99.90;;;;;;4192063;28;20354;-57
2021/12/26 01:24:02;;;;;;;7.33;4.53;;;1.30;99.90;;;;;;4191327;28;20335;-56
2021/12/26 01:26:03;;;;;;;5.83;3.40;;;1.30;99.90;;;;;;4192156;28;20660;-57
2021/12/26 01:28:05;;;;;;;6.50;3.50;;;1.30;99.90;;;;;;4190837;28;20379;-54
2021/12/26 01:30:07;;;;;;;6.33;3.70;;;1.30;99.90;;;;;;4192233;28;20326;-52
2021/12/26 01:32:08;;;;;;;8.80;4.97;;;1.20;99.90;;;;;;4190843;28;20842;-56
2021/12/26 01:34:09;;;;;;;7.90;4.00;;;1.20;99.90;;;;;;4191698;28;20269;-59
2021/12/26 01:36:10;;;;;;;7.70;4.37;;;1.30;99.90;;;;;;4190546;28;20262;-58
2021/12/26 01:38:14;;;;;;;5.97;3.27;;;1.30;99.90;;;;;;4190851;28;20274;-59
2021/12/26 01:40:16;;;;;;;6.47;3.83;;;1.30;99.90;;;;;;4190478;28;20277;-63
2021/12/26 01:42:17;;;;;;;6.53;4.00;;;1.30;99.90;;;;;;4191776;28;20807;-59
2021/12/26 01:44:18;;;;;;;7.93;4.93;;;1.30;99.90;;;;;;4190498;28;20310;-59
2021/12/26 01:46:20;;;;;;;5.30;3.40;;;1.30;99.90;;;;;;4189830;28;20304;-56
2021/12/26 01:48:22;;;;;;;4.90;3.33;;;1.30;99.90;;;;;;4191474;28;20350;-57
2021/12/26 01:50:24;;;;;;;4.90;3.17;;;1.20;99.90;;;;;;4190843;28;20326;-53
2021/12/26 01:52:25;;;;;;;5.93;3.23;;;1.20;99.90;;;;;;4190394;28;20348;-57
2021/12/26 01:54:47;;;;;;;4.03;2.73;;;1.20;99.90;;;;;;4190555;28;20723;-56
2021/12/26 01:56:48;;;;;;;4.80;2.80;;;1.20;99.90;;;;;;4191037;28;20273;-56
2021/12/26 01:58:49;;;;;;;5.23;3.13;;;1.20;99.90;;;;;;4190311;28;20265;-56
2021/12/26 02:00:58;;;;;;;6.07;3.37;;;1.20;99.90;;;;;;4191407;28;20322;-55
2021/12/26 02:03:00;;;;;;;5.67;3.57;;;1.20;99.90;;;;;;4190638;28;20270;-54
2021/12/26 02:05:02;;;;;;;5.03;3.33;;;1.20;99.90;;;;;;4190965;28;20315;-57
2021/12/26 02:07:05;;;;;;;3.97;3.03;;;1.20;99.90;;;;;;4190079;28;20257;-53
2021/12/26 02:09:07;;;;;;;5.53;3.73;;;1.20;99.90;;;;;;4191186;28;20668;-59
2021/12/26 02:11:08;;;;;;;4.40;3.23;;;1.20;99.90;;;;;;4189757;28;20327;-57
2021/12/26 02:13:10;;;;;;;4.03;2.70;;;1.20;99.90;;;;;;4191587;28;20978;-54
2021/12/26 02:15:11;;;;;;;5.50;3.23;;;1.20;99.90;;;;;;4190162;28;20346;-55
2021/12/26 02:17:15;;;;;;;4.87;3.23;;;1.20;99.90;;;;;;4191131;28;20261;-57
2021/12/26 02:19:17;;;;;;;6.23;3.43;;;1.20;99.90;;;;;;4190052;28;20315;-56
2021/12/26 02:21:49;;;;;;;4.10;2.87;;;1.20;99.90;;;;;;4191439;28;20797;-57
2021/12/26 02:24:05;;;;;;;6.23;3.13;;;1.20;99.90;;;;;;4189531;28;20301;-54
2021/12/26 02:28:17;;;;;;;6.17;3.60;;;1.20;99.90;;;;;;4189763;28;20378;-58
2021/12/26 02:30:19;;;;;;;5.13;3.30;;;1.20;99.90;;;;;;4191637;28;20265;-63
2021/12/26 02:32:20;;;;;;;3.73;3.00;;;1.20;99.90;;;;;;4189937;28;21235;-58
2021/12/26 02:34:22;;;;;;;6.13;3.90;;;1.20;99.90;;;;;;4191438;28;20277;-56
2021/12/26 02:36:23;;;;;;;5.00;3.60;;;1.20;99.90;;;;;;4189646;28;20978;-57
2021/12/26 02:38:24;;;;;;;5.47;3.47;;;1.20;99.90;;;;;;4191010;28;20273;-56
2021/12/26 02:40:25;;;;;;;4.97;3.53;;;1.20;99.90;;;;;;4190196;28;20323;-55
2021/12/26 02:42:26;;;;;;;6.07;3.70;;;1.20;99.90;;;;;;4189753;28;20253;-57
2021/12/26 02:44:27;;;;;;;4.70;3.30;;;1.30;99.90;;;;;;4189987;28;20338;-57
2021/12/26 02:46:29;;;;;;;7.70;4.00;;;1.20;99.90;;;;;;4190038;28;20319;-60
2021/12/26 02:48:30;;;;;;;5.47;3.80;;;1.30;99.90;;;;;;4190427;28;20277;-56
2021/12/26 02:50:33;;;;;;;6.60;3.70;;;1.20;99.90;;;;;;4190226;28;20266;-61
2021/12/26 02:52:34;;;;;;;6.17;4.17;;;1.20;99.90;;;;;;4190444;28;20262;-57
2021/12/26 02:54:35;;;;;;;5.90;4.17;;;1.30;99.90;;;;;;4189909;28;20338;-57
2021/12/26 02:56:36;;;;;;;7.13;4.17;;;1.30;99.90;;;;;;4190674;28;20258;-57
2021/12/26 02:58:37;;;;;;;9.50;4.33;;;1.30;99.90;;;;;;4188666;28;20300;-62
2021/12/26 03:00:45;;;;;;;7.13;4.27;;;1.30;99.90;;;;;;4191402;28;20277;-58
2021/12/26 03:02:49;;;;;;;8.60;4.47;;;1.30;99.90;;;;;;4189459;28;20319;-58
2021/12/26 03:04:51;;;;;;;6.33;4.23;;;1.30;99.90;;;;;;4191427;28;20261;-56
2021/12/26 03:07:02;;;;;;;5.93;3.70;;;1.30;99.90;;;;;;4189655;28;20277;-64
2021/12/26 03:09:05;;;;;;;5.82;4.43;;;1.30;99.90;;;;;;4191052;28;20277;-57
2021/12/26 03:11:06;;;;;;;7.87;4.10;;;1.30;99.90;;;;;;4188932;28;20037;-56
2021/12/26 03:13:09;;;;;;;6.63;4.60;;;1.30;99.90;;;;;;4190549;28;20661;-56
2021/12/26 03:15:11;;;;;;;7.23;4.50;;;1.40;99.90;;;;;;4189253;28;20338;-55
2021/12/26 03:17:13;;;;;;;8.10;4.93;;;1.40;99.90;;;;;;4190084;28;20262;-57
2021/12/26 03:19:14;;;;;;;5.83;3.97;;;1.40;99.90;;;;;;4189692;28;20269;-57
2021/12/26 03:21:15;;;;;;;6.27;3.87;;;1.30;99.90;;;;;;4190160;28;20327;-54
2021/12/26 03:23:20;;;;;;;7.73;4.40;;;1.30;99.90;;;;;;4190436;28;20281;-61
2021/12/26 03:25:23;;;;;;;6.07;4.03;;;1.30;99.90;;;;;;4189721;28;20795;-67
2021/12/26 03:27:24;;;;;;;7.17;4.53;;;1.40;99.90;;;;;;4190650;28;20257;-56
2021/12/26 03:29:25;;;;;;;5.47;4.17;;;1.30;99.90;;;;;;4189214;28;20269;-57
2021/12/26 03:31:26;;;;;;;4.93;3.43;;;1.40;99.90;;;;;;4190215;28;21058;-58
2021/12/26 03:33:28;;;;;;;6.37;3.63;;;1.30;99.90;;;;;;4189165;28;20336;-58
2021/12/26 03:35:30;;;;;;;6.03;3.70;;;1.30;99.90;;;;;;4190590;28;20516;-53
2021/12/26 03:37:31;;;;;;;5.23;3.60;;;1.30;99.90;;;;;;4188931;28;20273;-65
2021/12/26 03:39:32;;;;;;;6.20;3.47;;;1.30;99.90;;;;;;4190272;28;20274;-58
2021/12/26 03:41:33;;;;;;;5.50;3.47;;;1.30;99.90;;;;;;4187644;28;20286;-62
2021/12/26 03:43:34;;;;;;;6.83;3.77;;;1.30;99.90;;;;;;4190167;28;20327;-61
2021/12/26 03:45:36;;;;;;;6.20;4.17;;;1.30;99.90;;;;;;4189014;28;20917;-54
2021/12/26 03:47:39;;;;;;;5.27;3.33;;;1.30;99.90;;;;;;4189980;28;20299;-58
2021/12/26 03:49:40;;;;;;;5.47;3.57;;;1.30;99.90;;;;;;4189376;28;20303;-57
2021/12/26 03:51:41;;;;;;;5.00;3.13;;;1.30;99.90;;;;;;4189851;28;20569;-66
2021/12/26 03:53:42;;;;;;;6.57;3.63;;;1.30;99.90;;;;;;4190764;28;20330;-54
2021/12/26 03:55:44;;;;;;;6.50;3.63;;;1.30;99.90;;;;;;4193381;28;20297;-57
2021/12/26 03:57:45;;;;;;;5.60;3.60;;;1.30;99.90;;;;;;4193233;28;20265;-54
2021/12/26 03:59:47;;;;;;;7.60;4.03;;;1.30;99.90;;;;;;4192521;28;20299;-55
2021/12/26 04:01:48;;;;;;;6.27;3.63;;;1.30;99.90;;;;;;4193939;28;20265;-52
2021/12/26 04:03:49;;;;;;;5.37;3.07;;;1.30;99.90;;;;;;4192720;28;20897;-58
2021/12/26 04:05:51;;;;;;;4.47;3.30;;;1.30;99.90;;;;;;4193264;28;20261;-55
2021/12/26 04:07:52;;;;;;;4.87;3.50;;;1.30;99.90;;;;;;4192217;28;20261;-56
2021/12/26 04:09:53;;;;;;;4.57;3.07;;;1.30;99.90;;;;;;4193513;28;20274;-51
2021/12/26 04:11:54;;;;;;;5.43;3.43;;;1.40;99.90;;;;;;4192103;28;20269;-56
2021/12/26 04:13:55;;;;;;;5.60;3.07;;;1.40;99.90;;;;;;4193190;28;20297;-55
2021/12/26 04:15:56;;;;;;;4.97;3.37;;;1.40;99.90;;;;;;4191849;28;20343;-56
2021/12/26 04:17:58;;;;;;;4.07;3.20;;;1.40;99.90;;;;;;4193235;28;20831;-60
2021/12/26 04:19:59;;;;;;;6.53;3.07;;;1.40;99.90;;;;;;4192123;28;20254;-64
2021/12/26 04:22:02;;;;;;;4.70;3.47;;;1.40;99.90;;;;;;4191668;28;20369;-58
2021/12/26 04:24:05;;;;;;;3.70;2.60;;;1.40;99.90;;;;;;4192180;28;20807;-57
2021/12/26 04:26:06;;;;;;;4.50;3.27;;;1.30;99.90;;;;;;4192456;28;20263;-57
2021/12/26 04:28:08;;;;;;;5.87;3.23;;;1.30;99.90;;;;;;4192484;28;20879;-56
2021/12/26 04:30:11;;;;;;;4.90;2.87;;;1.40;99.90;;;;;;4191545;28;20273;-55
2021/12/26 04:32:13;;;;;;;5.10;3.50;;;1.30;99.90;;;;;;4192930;28;20323;-56
2021/12/26 04:34:14;;;;;;;4.63;2.83;;;1.30;99.90;;;;;;4191527;28;20285;-52
2021/12/26 04:36:15;;;;;;;5.37;2.80;;;1.30;99.90;;;;;;4193363;28;20738;-58
2021/12/26 04:38:16;;;;;;;5.70;3.20;;;1.30;99.90;;;;;;4191873;28;20347;-52
2021/12/26 04:40:18;;;;;;;5.50;3.53;;;1.30;99.90;;;;;;4191628;28;20261;-55
2021/12/26 04:42:19;;;;;;;6.93;3.23;;;1.30;99.90;;;;;;4191587;28;20795;-62
2021/12/26 04:44:24;;;;;;;5.10;3.40;;;1.30;99.90;;;;;;4192644;28;20270;-57
2021/12/26 04:46:25;;;;;;;5.60;3.40;;;1.30;99.90;;;;;;4191636;28;20266;-55
2021/12/26 04:48:26;;;;;;;5.67;3.47;;;1.40;99.90;;;;;;4192609;28;20610;-57
2021/12/26 04:50:28;;;;;;;5.30;3.37;;;1.40;99.90;;;;;;4191265;28;20327;-56
2021/12/26 04:52:29;;;;;;;5.57;3.00;;;1.40;99.90;;;;;;4192507;28;20269;-58
2021/12/26 04:54:30;;;;;;;7.33;3.37;;;1.50;99.90;;;;;;4192005;28;20708;-69
2021/12/26 04:56:32;;;;;;;4.43;3.37;;;1.50;99.90;;;;;;4191944;28;20289;-60
2021/12/26 04:58:33;;;;;;;4.43;3.03;;;1.50;99.90;;;;;;4191979;28;20307;-68
2021/12/26 05:00:35;;;;;;;6.03;2.90;;;1.50;99.90;;;;;;4191575;28;20299;-55
2021/12/26 05:02:38;;;;;;;5.00;3.13;;;1.50;99.90;;;;;;4192387;28;20273;-63
2021/12/26 05:04:41;;;;;;;6.20;3.77;;;1.50;99.90;;;;;;4190332;28;20861;-53
2021/12/26 05:06:42;;;;;;;5.27;2.87;;;1.40;99.90;;;;;;4192474;28;20616;-57
2021/12/26 05:08:43;;;;;;;10.90;5.30;;;1.40;99.90;;;;;;4191171;28;20281;-55
2021/12/26 05:10:44;;;;;;;8.97;5.87;;;1.30;99.90;;;;;;4192258;28;20269;-56
2021/12/26 05:12:47;;;;;;;8.80;5.07;;;1.30;99.90;;;;;;4191394;28;20265;-59
2021/12/26 05:14:48;;;;;;;9.57;5.63;;;1.10;99.90;;;;;;4192134;28;20269;-57
2021/12/26 05:16:49;;;;;;;8.27;5.53;;;1.10;99.90;;;;;;4190952;28;20346;-54
2021/12/26 05:18:50;;;;;;;9.50;5.57;;;1.00;99.90;;;;;;4192453;28;20277;-57
2021/12/26 05:20:51;;;;;;;7.63;4.97;;;1.00;99.90;;;;;;4191444;28;20745;-57
2021/12/26 05:22:55;;;;;;;8.87;4.83;;;1.00;99.90;;;;;;4191606;28;20307;-57
2021/12/26 05:24:56;;;;;;;11.40;5.17;;;0.90;99.90;;;;;;4189903;28;20270;-55
2021/12/26 05:26:57;;;;;;;9.00;5.50;;;0.90;99.90;;;;;;4192197;28;20277;-65
2021/12/26 05:28:58;;;;;;;7.27;4.53;;;0.90;99.90;;;;;;4191425;28;20277;-56
2021/12/26 05:30:59;;;;;;;8.60;4.73;;;0.90;99.90;;;;;;4191001;28;20367;-56
2021/12/26 05:33:00;;;;;;;8.73;5.47;;;0.90;99.90;;;;;;4191750;28;20753;-52
2021/12/26 05:35:02;;;;;;;7.70;4.97;;;0.90;99.90;;;;;;4189356;28;20261;-54
2021/12/26 05:37:03;;;;;;;9.00;4.43;;;0.90;99.90;;;;;;4191770;28;20265;-60
2021/12/26 05:39:04;;;;;;;6.87;4.77;;;0.90;99.90;;;;;;4190931;28;20282;-55
2021/12/26 05:41:06;;;;;;;7.33;4.53;;;0.90;99.90;;;;;;4191928;28;20274;-60
2021/12/26 05:43:07;;;;;;;7.67;4.63;;;0.90;99.90;;;;;;4190374;28;20269;-54
2021/12/26 05:45:10;;;;;;;8.50;4.67;;;0.80;99.90;;;;;;4191695;28;20273;-51
2021/12/26 05:47:12;;;;;;;6.90;4.07;;;0.90;99.90;;;;;;4190751;28;20760;-56
2021/12/26 05:49:13;;;;;;;8.40;4.67;;;0.90;99.90;;;;;;4191409;28;21204;-57
2021/12/26 05:51:14;;;;;;;9.03;5.03;;;0.90;99.90;;;;;;4190482;28;20761;-55
2021/12/26 05:53:15;;;;;;;7.10;4.37;;;0.90;99.90;;;;;;4191400;28;20319;-57
2021/12/26 05:55:17;;;;;;;7.43;4.57;;;0.90;99.90;;;;;;4190634;28;20515;-57
2021/12/26 05:57:19;;;;;;;9.37;4.40;;;0.90;99.90;;;;;;4191431;28;20262;-52
2021/12/26 05:59:20;;;;;;;8.23;4.60;;;0.90;99.90;;;;;;4190964;28;21189;-56
2021/12/26 06:01:21;;;;;;;9.83;5.53;;;0.90;99.90;;;;;;4190628;28;20257;-56
2021/12/26 06:03:22;;;;;;;7.67;4.87;;;0.90;99.90;;;;;;4191545;28;20269;-63
2021/12/26 06:05:23;;;;;;;7.57;4.67;;;0.90;99.90;;;;;;4190329;28;20331;-56
2021/12/26 06:07:24;;;;;;;9.00;5.43;;;0.90;99.90;;;;;;4191348;28;20335;-53
2021/12/26 06:09:26;;;;;;;7.10;4.70;;;0.90;99.90;;;;;;4190118;28;20265;-57
2021/12/26 06:11:27;;;;;;;8.07;4.57;;;0.90;99.90;;;;;;4191759;28;20269;-55
2021/12/26 06:13:30;;;;;;;8.83;5.47;;;0.90;99.90;;;;;;4190138;28;20262;-58
2021/12/26 06:15:33;;;;;;;8.43;5.60;;;0.80;99.90;;;;;;4191404;28;20378;-57
2021/12/26 06:17:34;;;;;;;7.67;4.73;;;0.90;99.90;;;;;;4189192;28;20645;-56
2021/12/26 06:19:35;;;;;;;7.03;4.60;;;0.90;99.90;;;;;;4190979;28;20270;-55
2021/12/26 06:21:36;;;;;;;10.67;5.50;;;0.90;99.90;;;;;;4189910;28;20708;-56
2021/12/26 06:23:38;;;;;;;15.60;7.17;;;0.90;99.90;;;;;;4191211;28;20334;-57
2021/12/26 06:25:39;;;;;;;17.43;10.53;;;0.90;99.90;;;;;;4190143;28;20261;-57
2021/12/26 06:27:41;;;;;;;21.43;12.63;;;0.90;99.90;;;;;;4190594;28;20271;-57
2021/12/26 06:29:42;;;;;;;23.03;12.60;;;0.80;99.90;;;;;;4190262;28;20274;-54
2021/12/26 06:31:43;;;;;;;21.33;13.67;;;0.80;99.90;;;;;;4188221;28;20779;-56
2021/12/26 06:33:46;;;;;;;25.97;13.10;;;0.80;99.90;;;;;;4190742;28;20265;-55
2021/12/26 06:35:49;;;;;;;17.53;10.17;;;0.80;99.90;;;;;;4188457;28;20301;-58
2021/12/26 06:37:50;;;;;;;15.33;8.80;;;0.80;99.90;;;;;;4190812;28;20295;-53
2021/12/26 06:39:51;;;;;;;14.57;8.20;;;0.80;99.90;;;;;;4190314;28;20292;-54
2021/12/26 06:41:52;;;;;;;13.03;7.67;;;0.80;99.90;;;;;;4191443;28;20266;-56
2021/12/26 06:43:54;;;;;;;11.23;6.87;;;0.70;99.90;;;;;;4189520;28;20281;-56
2021/12/26 06:45:55;;;;;;;12.30;7.20;;;0.70;99.90;;;;;;4189659;28;20269;-53
2021/12/26 06:48:01;;;;;;;10.30;7.27;;;0.70;99.90;;;;;;4189639;28;20273;-56
2021/12/26 06:50:04;;;;;;;12.27;6.80;;;0.70;99.90;;;;;;4190820;28;20335;-56
2021/12/26 06:52:06;;;;;;;15.30;9.27;;;0.70;99.90;;;;;;4189948;28;21022;-57
2021/12/26 06:54:07;;;;;;;19.27;11.17;;;0.70;99.90;;;;;;4190412;28;21073;-58
2021/12/26 06:56:08;;;;;;;20.50;11.47;;;0.70;99.90;;;;;;4189564;28;20313;-54
2021/12/26 06:58:09;;;;;;;20.40;10.43;;;0.70;99.90;;;;;;4191234;28;20277;-56
2021/12/26 07:00:14;;;;;;;18.77;10.23;;;0.70;99.90;;;;;;4189691;28;20314;-58
2021/12/26 07:02:15;;;;;;;20.80;11.10;;;0.70;99.90;;;;;;4189329;28;20783;-57
2021/12/26 07:04:16;;;;;;;20.90;12.23;;;0.70;99.90;;;;;;4189714;28;20277;-59
2021/12/26 07:06:18;;;;;;;26.37;12.33;;;0.70;99.90;;;;;;4189835;28;20330;-54
2021/12/26 07:08:19;;;;;;;22.47;11.83;;;0.70;99.90;;;;;;4189161;28;20266;-57
2021/12/26 07:10:20;;;;;;;20.47;11.73;;;0.70;99.90;;;;;;4189527;28;20874;-54
2021/12/26 07:12:21;;;;;;;18.27;10.37;;;0.80;99.90;;;;;;4190858;28;20342;-57
2021/12/26 07:14:22;;;;;;;12.67;6.67;;;0.70;99.90;;;;;;4189872;28;21196;-57
2021/12/26 07:16:25;;;;;;;17.73;9.63;;;0.80;99.90;;;;;;4190700;28;20281;-56
2021/12/26 07:18:26;;;;;;;17.37;9.87;;;0.80;99.90;;;;;;4189458;28;20334;-57
2021/12/26 07:20:27;;;;;;;19.20;10.57;;;0.70;99.90;;;;;;4190548;28;20273;-57
2021/12/26 07:22:29;;;;;;;20.00;9.50;;;0.80;99.90;;;;;;4189423;28;20297;-57
2021/12/26 07:24:31;;;;;;;12.13;7.93;;;0.80;99.90;;;;;;4190601;28;20343;-56
2021/12/26 07:26:32;;;;;;;15.27;9.13;;;0.80;99.90;;;;;;4189516;28;20775;-56
2021/12/26 07:28:33;;;;;;;15.37;8.73;;;0.80;99.90;;;;;;4192379;28;20273;-56
2021/12/26 07:30:34;;;;;;;14.67;9.00;;;0.80;99.90;;;;;;4192052;28;20273;-56
2021/12/26 07:32:35;;;;;;;14.23;9.10;;;0.90;99.90;;;;;;4193443;28;20266;-56
2021/12/26 07:34:37;;;;;;;11.50;7.07;;;0.90;99.90;;;;;;4191908;28;20817;-55
2021/12/26 07:36:38;;;;;;;15.40;8.60;;;0.90;99.90;;;;;;4192941;28;20346;-56
2021/12/26 07:38:40;;;;;;;18.77;9.73;;;0.90;99.90;;;;;;4193027;28;20269;-54
2021/12/26 07:40:41;;;;;;;17.43;9.30;;;1.00;99.90;;;;;;4193360;28;20281;-54
2021/12/26 07:42:42;;;;;;;15.97;9.80;;;1.10;99.90;;;;;;4193613;28;20265;-53
2021/12/26 07:44:43;;;;;;;18.63;10.73;;;1.10;99.90;;;;;;4192206;28;20843;-58
2021/12/26 07:46:44;;;;;;;17.23;10.67;;;1.10;99.90;;;;;;4192425;28;20341;-56
2021/12/26 07:48:46;;;;;;;19.83;13.03;;;1.10;99.90;;;;;;4192678;28;20805;-56
2021/12/26 07:50:47;;;;;;;22.33;13.07;;;1.20;99.90;;;;;;4193583;28;20809;-57
2021/12/26 07:52:51;;;;;;;23.77;13.40;;;1.10;99.90;;;;;;4192564;28;20281;-56
2021/12/26 07:54:52;;;;;;;23.03;13.33;;;1.20;99.90;;;;;;4193634;28;20327;-55
2021/12/26 07:56:54;;;;;;;25.40;14.97;;;1.20;99.90;;;;;;4192585;28;20358;-57
2021/12/26 07:58:55;;;;;;;23.70;13.43;;;1.20;99.90;;;;;;4193530;28;20265;-54
2021/12/26 08:00:57;;;;;;;22.97;14.07;;;1.20;99.90;;;;;;4192552;28;20266;-55
2021/12/26 08:02:59;;;;;;;20.23;12.33;;;1.20;99.90;;;;;;4193403;28;20739;-57
2021/12/26 08:05:00;;;;;;;17.90;10.80;;;1.30;99.90;;;;;;4192708;28;20374;-53
2021/12/26 08:07:02;;;;;;;20.10;11.53;;;1.20;99.90;;;;;;4192877;28;20747;-56
2021/12/26 08:09:05;;;;;;;19.50;12.80;;;1.20;99.90;;;;;;4192618;28;20358;-55
2021/12/26 08:11:07;;;;;;;21.20;13.70;;;1.20;99.90;;;;;;4192356;28;20265;-56
2021/12/26 08:13:08;;;;;;;22.87;13.83;;;1.30;99.90;;;;;;4193103;28;20307;-56
2021/12/26 08:15:09;;;;;;;25.87;15.47;;;1.30;99.90;;;;;;4192118;28;20266;-51
2021/12/26 08:17:10;;;;;;;28.70;18.50;;;1.30;99.90;;;;;;4192954;28;20301;-54
2021/12/26 08:19:11;;;;;;;25.83;17.37;;;1.30;99.90;;;;;;4192020;28;20273;-57
2021/12/26 08:21:12;;;;;;;26.73;16.47;;;1.30;99.90;;;;;;4192966;28;20275;-58
2021/12/26 08:23:13;;;;;;;26.87;16.97;;;1.20;99.90;;;;;;4191172;28;20352;-57
2021/12/26 08:25:15;;;;;;;20.73;13.67;;;1.20;99.90;;;;;;4192995;28;20339;-56
2021/12/26 08:27:16;;;;;;;19.73;12.97;;;1.20;99.90;;;;;;4191664;28;20273;-60
2021/12/26 08:29:21;;;;;;;21.37;13.83;;;1.20;99.90;;;;;;4191417;28;20324;-61
2021/12/26 08:31:22;;;;;;;22.37;13.73;;;1.30;99.90;;;;;;4191500;28;20761;-55
2021/12/26 08:33:24;;;;;;;17.93;12.73;;;1.30;99.90;;;;;;4192664;28;20273;-53
2021/12/26 08:35:25;;;;;;;16.17;10.83;;;1.40;99.90;;;;;;4191873;28;20270;-56
2021/12/26 08:37:27;;;;;;;16.97;10.80;;;1.40;99.90;;;;;;4193022;28;20307;-58
2021/12/26 08:39:32;;;;;;;16.60;10.23;;;1.40;99.90;;;;;;4191242;28;20330;-55
2021/12/26 08:41:33;;;;;;;14.37;8.90;;;1.40;99.90;;;;;;4192726;28;20335;-57
2021/12/26 08:43:34;;;;;;;15.30;10.30;;;1.40;99.90;;;;;;4191817;28;20277;-60
2021/12/26 08:45:36;;;;;;;15.97;10.70;;;1.40;99.90;;;;;;4191927;28;20838;-59
2021/12/26 08:47:38;;;;;;;20.80;10.80;;;1.40;99.90;;;;;;4192367;28;20269;-59
2021/12/26 08:49:39;;;;;;;20.47;12.83;;;1.50;99.90;;;;;;4191461;28;20261;-54
2021/12/26 08:51:41;;;;;;;24.40;14.13;;;1.50;99.90;;;;;;4192597;28;20745;-51
2021/12/26 08:53:42;;;;;;;21.87;14.13;;;1.50;99.90;;;;;;4191687;28;20755;-56
2021/12/26 08:55:43;;;;;;;23.80;14.67;;;1.50;99.90;;;;;;4192995;28;20265;-52
2021/12/26 08:57:46;;;;;;;22.77;13.83;;;1.50;99.90;;;;;;4191477;28;20270;-52
2021/12/26 08:59:47;;;;;;;21.50;13.20;;;1.50;99.90;;;;;;4192311;28;20310;-54
2021/12/26 09:01:48;;;;;;;22.57;13.63;;;1.60;99.90;;;;;;4191536;28;20733;-52
2021/12/26 09:03:49;;;;;;;26.83;14.87;;;1.50;99.90;;;;;;4192702;28;20269;-52
2021/12/26 09:05:51;;;;;;;23.17;13.87;;;1.60;99.90;;;;;;4191130;28;20257;-60
2021/12/26 09:07:52;;;;;;;21.83;13.50;;;1.60;99.90;;;;;;4192139;28;20285;-56
2021/12/26 09:09:53;;;;;;;24.77;13.07;;;1.60;99.90;;;;;;4191256;28;20262;-56
2021/12/26 09:11:54;;;;;;;21.33;13.70;;;1.60;99.90;;;;;;4192318;28;20307;-52
2021/12/26 09:13:56;;;;;;;25.53;13.83;;;1.50;99.90;;;;;;4191477;28;20327;-54
2021/12/26 09:15:57;;;;;;;21.53;12.90;;;1.50;99.90;;;;;;4191532;28;21113;-52
2021/12/26 09:17:59;;;;;;;26.17;14.13;;;1.50;99.90;;;;;;4191894;28;20297;-58
2021/12/26 09:20:00;;;;;;;22.80;13.87;;;1.50;99.90;;;;;;4191117;28;20587;-56
2021/12/26 09:22:06;;;;;;;28.30;14.90;;;1.50;99.90;;;;;;4191613;28;20334;-58
2021/12/26 09:24:07;;;;;;;23.30;13.80;;;1.50;99.90;;;;;;4191048;28;20319;-61
2021/12/26 09:26:08;;;;;;;29.50;16.87;;;1.50;99.90;;;;;;4193127;28;20342;-60
2021/12/26 09:28:09;;;;;;;32.13;17.67;;;1.40;99.90;;;;;;4190654;28;20323;-62
2021/12/26 09:30:12;;;;;;;37.47;19.23;;;1.40;99.90;;;;;;4192179;28;20319;-59
2021/12/26 09:32:13;;;;;;;38.27;19.63;;;1.40;99.90;;;;;;4190615;28;20428;-60
2021/12/26 09:34:15;;;;;;;38.23;19.97;;;1.40;99.90;;;;;;4191677;28;20303;-60
2021/12/26 09:36:16;;;;;;;34.10;17.93;;;1.40;99.90;;;;;;4190388;28;20323;-61
2021/12/26 09:38:18;;;;;;;36.00;20.03;;;1.40;99.90;;;;;;4191765;28;20312;-60
2021/12/26 09:40:19;;;;;;;34.63;20.23;;;1.40;99.90;;;;;;4190507;28;20331;-60
2021/12/26 09:42:21;;;;;;;38.23;20.70;;;1.40;99.90;;;;;;4191726;28;20265;-58
2021/12/26 09:44:22;;;;;;;40.53;21.37;;;1.40;99.90;;;;;;4190834;28;20257;-54
2021/12/26 09:46:28;;;;;;;37.83;22.83;;;1.40;99.90;;;;;;4191609;28;20261;-57
2021/12/26 09:48:29;;;;;;;37.40;21.33;;;1.40;99.90;;;;;;4191004;28;20402;-57
2021/12/26 09:50:31;;;;;;;35.27;20.73;;;1.40;99.90;;;;;;4190774;28;20261;-57
2021/12/26 09:52:32;;;;;;;34.57;19.87;;;1.40;99.90;;;;;;4190527;28;20273;-57
2021/12/26 09:54:34;;;;;;;33.47;18.37;;;1.40;99.90;;;;;;4190167;28;20326;-56
2021/12/26 09:56:36;;;;;;;35.17;18.90;;;1.50;99.90;;;;;;4191463;28;20691;-56
2021/12/26 09:58:59;;;;;;;30.27;17.37;;;1.50;99.90;;;;;;4190464;28;20265;-55
2021/12/26 10:01:02;;;;;;;29.67;16.47;;;1.60;99.90;;;;;;4190995;28;20730;-59
2021/12/26 10:03:17;;;;;;;30.10;17.03;;;1.60;99.90;;;;;;4190366;28;20965;-59
2021/12/26 10:05:18;;;;;;;29.17;16.00;;;1.60;99.90;;;;;;4191629;28;21796;-58
2021/12/26 10:07:22;;;;;;;30.07;17.37;;;1.60;99.90;;;;;;4190438;28;20319;-59
2021/12/26 10:09:24;;;;;;;26.10;15.40;;;1.60;99.90;;;;;;4191030;28;20655;-58
2021/12/26 10:11:38;;;;;;;31.40;18.50;;;1.70;99.90;;;;;;4188417;28;20760;-58
2021/12/26 10:14:01;;;;;;;29.17;15.73;;;1.70;99.90;;;;;;4191232;28;20269;-58
2021/12/26 10:16:02;;;;;;;24.57;14.97;;;1.80;99.90;;;;;;4190242;28;21176;-62
2021/12/26 10:18:29;;;;;;;25.40;15.33;;;1.90;99.90;;;;;;4191586;28;20297;-59
2021/12/26 10:20:34;;;;;;;23.60;14.90;;;1.90;99.90;;;;;;4189939;28;20323;-64
2021/12/26 10:22:36;;;;;;;22.97;14.63;;;1.90;99.90;;;;;;4190953;28;20342;-59
2021/12/26 10:24:41;;;;;;;25.30;14.67;;;1.90;99.90;;;;;;4190075;28;20281;-56
2021/12/26 10:27:03;;;;;;;24.67;14.97;;;2.00;99.90;;;;;;4191411;28;20311;-60
2021/12/26 10:29:09;;;;;;;27.43;14.87;;;2.00;99.90;;;;;;4189726;28;20331;-51
2021/12/26 10:31:11;;;;;;;25.03;14.73;;;2.20;99.90;;;;;;4190292;28;20318;-54
2021/12/26 10:33:12;;;;;;;22.10;13.43;;;2.10;99.90;;;;;;4189595;28;20265;-58
2021/12/26 10:35:16;;;;;;;23.47;13.90;;;2.00;99.90;;;;;;4190849;28;20308;-54
2021/12/26 10:37:24;;;;;;;22.57;14.23;;;2.10;99.90;;;;;;4189437;28;20844;-51
2021/12/26 10:39:35;;;;;;;27.80;15.23;;;2.10;99.90;;;;;;4191527;28;20277;-58
2021/12/26 10:41:44;;;;;;;24.80;14.07;;;2.10;99.90;;;;;;4190013;28;20335;-58
2021/12/26 10:43:46;;;;;;;24.47;14.67;;;2.10;99.90;;;;;;4191008;28;20261;-59